Time;durP1;ratioP1;P1;durP2;ratioP2;P2;SDS_P1;SDS_P2;PMS_P1;PMS_P2;Temp;Humidity;BMP_temperature;BMP_pressure;BME280_temperature;BME280_humidity;BME280_pressure;Samples;Min_cycle;Max_cycle;Signal;HPM_P1;HPM_P2
2023/08/03 00:04:01;;;;;;;8.35;4.53;;;17.10;99.90;;;;;;25636584;23;20013;-57
2023/08/03 00:14:03;;;;;;;9.18;4.10;;;17.10;99.90;;;;;;25594972;23;20078;-57
2023/08/03 00:24:05;;;;;;;6.60;3.38;;;17.00;99.90;;;;;;25594298;23;20075;-57
2023/08/03 00:34:07;;;;;;;6.05;3.30;;;17.00;99.90;;;;;;25593578;23;20064;-57
2023/08/03 00:44:09;;;;;;;5.70;3.60;;;16.80;99.90;;;;;;25593608;23;20487;-57
2023/08/03 00:54:11;;;;;;;6.15;3.65;;;16.70;99.90;;;;;;25593378;23;20005;-56
2023/08/03 01:04:14;;;;;;;9.52;3.90;;;16.60;99.90;;;;;;25592494;23;20001;-58
2023/08/03 01:14:16;;;;;;;6.93;3.90;;;16.50;99.90;;;;;;25592729;23;20518;-57
2023/08/03 01:24:18;;;;;;;7.32;3.92;;;16.60;99.90;;;;;;25592075;23;20013;-45
2023/08/03 01:34:20;;;;;;;8.00;4.05;;;16.70;99.90;;;;;;25592440;23;20017;-58
2023/08/03 01:44:26;;;;;;;10.13;4.93;;;16.70;99.90;;;;;;25591557;23;20075;-50
2023/08/03 01:54:28;;;;;;;11.20;4.80;;;16.60;99.90;;;;;;25590627;23;20490;-58
2023/08/03 02:04:30;;;;;;;9.95;5.53;;;16.20;99.90;;;;;;25564475;23;20059;-58
2023/08/03 02:14:32;;;;;;;9.52;6.20;;;15.90;99.90;;;;;;25589980;23;20005;-57
2023/08/03 02:24:34;;;;;;;10.32;7.03;;;15.40;99.90;;;;;;25563604;23;20005;-57
2023/08/03 02:34:35;;;;;;;16.35;7.43;;;15.10;99.90;;;;;;25589193;23;20009;-57
2023/08/03 02:44:38;;;;;;;14.07;6.63;;;14.90;99.90;;;;;;25562839;23;20005;-57
2023/08/03 02:54:41;;;;;;;10.80;6.97;;;14.90;99.90;;;;;;25562496;23;20005;-57
2023/08/03 03:04:43;;;;;;;12.82;6.22;;;15.00;99.90;;;;;;25562500;23;20059;-57
2023/08/03 03:14:45;;;;;;;11.82;6.60;;;15.10;99.90;;;;;;25588807;23;20052;-57
2023/08/03 03:24:47;;;;;;;12.88;7.53;;;15.10;99.90;;;;;;25565288;23;20005;-57
2023/08/03 03:34:49;;;;;;;12.95;6.18;;;15.20;99.90;;;;;;25596364;23;20017;-57
2023/08/03 03:44:53;;;;;;;15.32;8.02;;;15.30;99.90;;;;;;25569575;23;20001;-57
2023/08/03 03:54:55;;;;;;;11.65;7.70;;;15.50;99.90;;;;;;25569407;23;20079;-57
2023/08/03 04:04:59;;;;;;;15.30;7.80;;;15.60;99.90;;;;;;25569022;23;20366;-48
2023/08/03 04:15:01;;;;;;;12.57;6.78;;;15.70;99.90;;;;;;25568474;23;20064;-58
2023/08/03 04:25:04;;;;;;;11.45;7.07;;;15.80;99.90;;;;;;25543434;23;20016;-57
2023/08/03 04:35:09;;;;;;;11.10;6.95;;;16.00;99.90;;;;;;25593400;23;20040;-47
2023/08/03 04:45:14;;;;;;;12.68;7.32;;;16.10;99.90;;;;;;25608520;23;20001;-50
2023/08/03 04:55:20;;;;;;;11.57;6.90;;;16.20;99.90;;;;;;25608374;23;20013;-57
2023/08/03 05:05:23;;;;;;;17.30;8.30;;;16.30;99.90;;;;;;25566822;23;20001;-57
2023/08/03 05:15:25;;;;;;;13.93;6.68;;;16.40;99.90;;;;;;25566284;23;20005;-58
2023/08/03 05:25:28;;;;;;;14.30;8.32;;;16.60;99.90;;;;;;25592440;23;20055;-57
2023/08/03 05:35:30;;;;;;;15.35;7.13;;;16.80;99.90;;;;;;25592248;23;20013;-50
2023/08/03 05:45:42;;;;;;;12.80;7.18;;;17.10;99.90;;;;;;25590967;23;20020;-58
2023/08/03 05:55:46;;;;;;;11.77;6.40;;;17.60;99.90;;;;;;25632109;23;20092;-57
2023/08/03 06:05:49;;;;;;;11.07;6.07;;;18.20;99.90;;;;;;25590444;23;20457;-58
2023/08/03 06:15:51;;;;;;;8.55;6.00;;;18.90;99.90;;;;;;25590462;23;20025;-58
2023/08/03 06:25:55;;;;;;;15.32;7.50;;;19.20;99.90;;;;;;25590404;23;20092;-57
2023/08/03 06:35:58;;;;;;;11.52;5.30;;;19.40;99.90;;;;;;25589326;23;20448;-48
2023/08/03 06:46:00;;;;;;;7.82;4.65;;;19.80;99.90;;;;;;25589627;23;20070;-57
2023/08/03 06:56:03;;;;;;;7.22;4.10;;;20.60;99.90;;;;;;25589008;23;20064;-58
2023/08/03 07:06:05;;;;;;;12.10;4.82;;;22.80;99.90;;;;;;25602610;23;20008;-58
2023/08/03 07:16:09;;;;;;;9.93;4.53;;;23.50;99.90;;;;;;25602750;23;20001;-59
2023/08/03 07:26:15;;;;;;;11.32;5.55;;;24.40;99.90;;;;;;25602203;23;20005;-59
2023/08/03 07:36:18;;;;;;;12.73;6.55;;;23.80;99.90;;;;;;25601624;23;20032;-59
2023/08/03 07:46:20;;;;;;;11.18;7.35;;;21.80;99.90;;;;;;25601911;23;20443;-59
2023/08/03 07:56:22;;;;;;;11.55;6.53;;;20.40;99.90;;;;;;25601359;23;20012;-48
2023/08/03 08:06:24;;;;;;;7.43;5.78;;;20.80;99.90;;;;;;25601703;23;20325;-59
2023/08/03 08:16:26;;;;;;;14.65;7.32;;;22.10;99.90;;;;;;25595159;23;20159;-58
2023/08/03 08:26:28;;;;;;;16.55;8.32;;;22.20;99.90;;;;;;25594744;23;20016;-58
2023/08/03 08:36:30;;;;;;;10.55;7.22;;;22.10;99.90;;;;;;25594120;23;20017;-58
2023/08/03 08:46:32;;;;;;;11.77;6.43;;;22.60;99.90;;;;;;25593903;23;20009;-58
2023/08/03 08:56:34;;;;;;;11.30;5.53;;;24.30;99.90;;;;;;25593441;23;20005;-58
2023/08/03 09:06:43;;;;;;;9.50;4.75;;;25.20;99.90;;;;;;25593075;23;20009;-50
2023/08/03 09:16:45;;;;;;;13.23;5.13;;;26.10;99.90;;;;;;25633551;23;20001;-59
2023/08/03 09:26:47;;;;;;;10.38;5.53;;;26.30;99.90;;;;;;25592047;23;20005;-58
2023/08/03 09:36:49;;;;;;;9.13;4.80;;;25.80;99.90;;;;;;25592742;23;20436;-58
2023/08/03 09:46:51;;;;;;;8.68;5.25;;;26.00;99.90;;;;;;25591332;23;20017;-58
2023/08/03 09:56:58;;;;;;;7.80;4.97;;;26.80;99.90;;;;;;25591120;23;20005;-58
2023/08/03 10:07:05;;;;;;;8.82;5.03;;;25.60;99.90;;;;;;25631894;23;20037;-58
2023/08/03 10:17:08;;;;;;;10.93;5.97;;;25.00;99.90;;;;;;25631611;23;20012;-58
2023/08/03 10:27:18;;;;;;;10.48;5.30;;;26.20;99.90;;;;;;25589548;23;20559;-58
2023/08/03 10:37:20;;;;;;;8.98;6.47;;;25.70;99.90;;;;;;25612339;23;20019;-58
2023/08/03 10:47:23;;;;;;;10.05;6.07;;;23.60;99.90;;;;;;25589514;23;20028;-58
2023/08/03 10:57:28;;;;;;;10.57;7.03;;;23.50;99.90;;;;;;25589181;23;20309;-57
2023/08/03 11:07:37;;;;;;;7.43;5.32;;;24.10;99.90;;;;;;25589044;23;20076;-58
2023/08/03 11:17:39;;;;;;;11.15;5.22;;;24.70;99.90;;;;;;25626057;23;20005;-44
2023/08/03 11:27:41;;;;;;;10.50;5.57;;;24.70;99.90;;;;;;25588774;23;20053;-57
2023/08/03 11:37:43;;;;;;;8.63;5.22;;;24.30;99.90;;;;;;25588062;23;20028;-48
2023/08/03 11:47:47;;;;;;;9.48;5.80;;;24.00;99.90;;;;;;25591826;23;20010;-58
2023/08/03 11:58:08;;;;;;;8.90;5.95;;;23.60;99.90;;;;;;25595422;23;20005;-57
2023/08/03 12:08:10;;;;;;;10.82;6.55;;;23.90;99.90;;;;;;25568746;23;20067;-57
2023/08/03 12:18:11;;;;;;;11.52;7.10;;;23.30;99.90;;;;;;25594980;23;20005;-57
2023/08/03 12:28:14;;;;;;;11.70;7.63;;;22.50;99.90;;;;;;25594426;23;20507;-57
2023/08/03 12:38:16;;;;;;;11.50;7.47;;;22.40;99.90;;;;;;25593777;23;20326;-57
2023/08/03 12:48:18;;;;;;;8.63;6.70;;;22.50;99.90;;;;;;25595402;23;20009;-57
2023/08/03 12:58:21;;;;;;;11.88;8.02;;;23.60;99.90;;;;;;25566863;23;20025;-57
2023/08/03 13:08:23;;;;;;;8.32;6.20;;;23.30;99.90;;;;;;25566251;23;20036;-57
2023/08/03 13:18:26;;;;;;;10.73;6.28;;;23.10;99.90;;;;;;25592617;23;20016;-57
2023/08/03 13:28:28;;;;;;;11.35;6.25;;;23.00;99.90;;;;;;25592221;23;20005;-57
2023/08/03 13:38:30;;;;;;;9.88;5.97;;;23.10;99.90;;;;;;25592118;23;20017;-57
2023/08/03 13:48:32;;;;;;;7.57;5.55;;;24.90;99.90;;;;;;25590620;23;20013;-58
2023/08/03 13:58:33;;;;;;;12.23;6.75;;;23.80;99.90;;;;;;25591132;23;20514;-57
2023/08/03 14:08:35;;;;;;;8.93;5.45;;;23.60;99.90;;;;;;25590037;23;20029;-57
2023/08/03 14:18:37;;;;;;;7.35;4.65;;;24.60;99.90;;;;;;25590247;23;20415;-47
2023/08/03 14:28:40;;;;;;;9.10;5.40;;;25.30;99.90;;;;;;25589912;23;20001;-58
2023/08/03 14:38:42;;;;;;;7.78;4.70;;;24.60;99.90;;;;;;25589366;23;20005;-58
2023/08/03 14:48:44;;;;;;;7.85;4.68;;;24.20;99.90;;;;;;25563221;23;20005;-58
2023/08/03 14:58:46;;;;;;;6.25;4.80;;;23.70;99.90;;;;;;25589258;23;20005;-55
2023/08/03 15:08:49;;;;;;;5.70;3.40;;;23.30;99.90;;;;;;25588929;23;20441;-44
2023/08/03 15:18:50;;;;;;;4.15;2.70;;;24.00;99.90;;;;;;25590217;23;20016;-58
2023/08/03 15:28:52;;;;;;;3.72;2.70;;;24.50;99.90;;;;;;25597161;23;20009;-58
2023/08/03 15:38:55;;;;;;;4.70;2.75;;;24.30;99.90;;;;;;25596224;23;20024;-57
2023/08/03 15:48:58;;;;;;;3.92;2.78;;;23.30;99.90;;;;;;25594851;23;20009;-57
2023/08/03 15:59:00;;;;;;;5.78;2.85;;;22.30;99.90;;;;;;25595893;23;20005;-57
2023/08/03 16:09:03;;;;;;;4.03;2.63;;;22.10;99.90;;;;;;25595091;23;20013;-57
2023/08/03 16:19:05;;;;;;;7.03;2.90;;;21.90;99.90;;;;;;25594844;23;20440;-58
2023/08/03 16:29:07;;;;;;;5.85;2.60;;;21.80;99.90;;;;;;25594379;23;20013;-57
2023/08/03 16:39:09;;;;;;;7.28;3.20;;;21.70;99.90;;;;;;25593939;23;20019;-57
2023/08/03 16:49:11;;;;;;;6.90;2.42;;;21.40;99.90;;;;;;25593840;23;20067;-57
2023/08/03 16:59:13;;;;;;;4.07;2.63;;;21.20;99.90;;;;;;25593523;23;20012;-49
2023/08/03 17:09:14;;;;;;;6.93;3.22;;;20.90;99.90;;;;;;25593107;23;20001;-58
2023/08/03 17:19:16;;;;;;;6.05;2.80;;;20.60;99.90;;;;;;25566182;23;20013;-57
2023/08/03 17:29:19;;;;;;;4.93;2.72;;;20.40;99.90;;;;;;25592207;23;20001;-58
2023/08/03 17:39:20;;;;;;;6.82;3.00;;;20.40;99.90;;;;;;25606750;23;20021;-57
2023/08/03 17:49:26;;;;;;;4.57;3.10;;;20.10;99.90;;;;;;25591536;23;20001;-57
2023/08/03 17:59:31;;;;;;;4.43;3.25;;;19.70;99.90;;;;;;25590835;23;20009;-58
2023/08/03 18:09:33;;;;;;;6.10;3.50;;;19.60;99.90;;;;;;25590716;23;20056;-57
2023/08/03 18:19:35;;;;;;;6.47;3.80;;;19.30;99.90;;;;;;25590083;23;20066;-54
2023/08/03 18:29:37;;;;;;;6.15;3.28;;;19.10;99.90;;;;;;25564249;23;20004;-57
2023/08/03 18:39:39;;;;;;;6.40;4.10;;;18.80;99.90;;;;;;25589678;23;20341;-57
2023/08/03 18:49:41;;;;;;;9.80;3.95;;;18.70;99.90;;;;;;25589257;23;20036;-57
2023/08/03 18:59:43;;;;;;;6.38;4.25;;;18.60;99.90;;;;;;25588870;23;20052;-57
2023/08/03 19:09:45;;;;;;;7.15;4.00;;;18.40;99.90;;;;;;25589101;23;20012;-57
2023/08/03 19:19:47;;;;;;;7.45;4.20;;;18.40;99.90;;;;;;25588862;23;20009;-57
2023/08/03 19:29:49;;;;;;;7.32;4.20;;;18.20;99.90;;;;;;25588672;23;20009;-57
2023/08/03 19:39:52;;;;;;;5.47;2.97;;;18.00;99.90;;;;;;25330890;23;20053;-57
2023/08/03 19:49:55;;;;;;;6.32;2.85;;;17.90;99.90;;;;;;25331230;23;20010;-57
2023/08/03 19:59:58;;;;;;;5.07;2.70;;;17.70;99.90;;;;;;25331055;23;20018;-57
2023/08/03 20:10:00;;;;;;;4.18;2.53;;;17.70;99.90;;;;;;25538961;23;20005;-56
2023/08/03 20:20:03;;;;;;;6.43;2.58;;;17.50;99.90;;;;;;25595098;23;20008;-57
2023/08/03 20:30:08;;;;;;;5.68;2.97;;;17.30;99.90;;;;;;25594672;23;20495;-57
2023/08/03 20:40:14;;;;;;;6.47;3.53;;;17.20;99.90;;;;;;25599167;23;20024;-57
2023/08/03 20:50:16;;;;;;;7.80;4.22;;;17.00;99.90;;;;;;25593749;23;20005;-56
2023/08/03 21:00:18;;;;;;;9.43;4.50;;;16.60;99.90;;;;;;25593432;23;20059;-57
2023/08/03 21:10:20;;;;;;;7.85;3.83;;;16.30;99.90;;;;;;25592486;23;20005;-57
2023/08/03 21:20:22;;;;;;;8.68;3.60;;;16.00;99.90;;;;;;25591769;23;20356;-57
2023/08/03 21:30:24;;;;;;;5.32;3.53;;;16.00;99.90;;;;;;25591790;23;20005;-56
2023/08/03 21:40:27;;;;;;;7.28;3.85;;;16.00;99.90;;;;;;25591044;23;20064;-56
2023/08/03 21:50:28;;;;;;;4.82;2.90;;;15.80;99.90;;;;;;25590845;23;20005;-57
2023/08/03 22:00:30;;;;;;;3.63;2.60;;;15.70;99.90;;;;;;25590145;23;20135;-57
2023/08/03 22:10:38;;;;;;;5.18;2.70;;;15.80;99.90;;;;;;25590063;23;20004;-56
2023/08/03 22:20:40;;;;;;;3.42;2.30;;;16.10;99.90;;;;;;25630596;23;20005;-56
2023/08/03 22:30:42;;;;;;;5.97;2.22;;;16.30;99.90;;;;;;25588720;23;20036;-57
2023/08/03 22:40:44;;;;;;;4.10;2.20;;;16.10;99.90;;;;;;25588529;23;20035;-48
2023/08/03 22:50:46;;;;;;;4.32;2.53;;;16.00;99.90;;;;;;25588608;23;20078;-57
2023/08/03 23:00:48;;;;;;;3.20;2.35;;;15.80;99.90;;;;;;25588253;23;20001;-57
2023/08/03 23:10:50;;;;;;;6.10;2.65;;;15.60;99.90;;;;;;25588249;23;20380;-56
2023/08/03 23:20:56;;;;;;;2.53;2.00;;;15.60;99.90;;;;;;25588193;23;20013;-57
2023/08/03 23:30:58;;;;;;;3.63;2.10;;;15.60;99.90;;;;;;25602930;23;20009;-45
2023/08/03 23:41:00;;;;;;;4.15;2.45;;;15.40;99.90;;;;;;25589816;23;20063;-57
2023/08/03 23:51:02;;;;;;;4.82;2.45;;;15.40;99.90;;;;;;25595358;23;20249;-56
